createdAt,value
2022-12-03T00:00:54.168Z,8.03
2022-12-03T00:03:21.682Z,8.00
2022-12-03T00:05:49.481Z,8.67
2022-12-03T00:08:17.079Z,8.73
2022-12-03T00:10:44.577Z,6.20
2022-12-03T00:13:12.118Z,8.07
2022-12-03T00:15:39.542Z,8.13
2022-12-03T00:18:06.853Z,7.47
2022-12-03T00:20:34.321Z,9.43
2022-12-03T00:23:01.970Z,7.63
2022-12-03T00:25:29.391Z,8.47
2022-12-03T00:27:56.831Z,7.67
2022-12-03T00:30:24.184Z,8.70
2022-12-03T00:32:51.506Z,7.37
2022-12-03T00:35:19.061Z,7.87
2022-12-03T00:37:46.788Z,8.70
2022-12-03T00:40:14.369Z,7.00
2022-12-03T00:42:41.823Z,7.60
2022-12-03T00:45:09.987Z,8.23
2022-12-03T00:47:37.322Z,9.00
2022-12-03T00:50:06.001Z,5.30
2022-12-03T00:52:33.492Z,8.50
2022-12-03T00:55:00.910Z,8.33
2022-12-03T00:57:28.393Z,8.40
2022-12-03T00:59:55.856Z,8.00
2022-12-03T01:02:23.446Z,8.20
2022-12-03T01:04:51.334Z,8.60
2022-12-03T01:07:19.080Z,7.07
2022-12-03T01:09:46.466Z,8.67
2022-12-03T01:12:13.930Z,7.27
2022-12-03T01:14:41.407Z,9.00
2022-12-03T01:17:08.870Z,6.97
2022-12-03T01:19:36.454Z,6.40
2022-12-03T01:22:03.963Z,8.70
2022-12-03T01:24:31.318Z,8.67
2022-12-03T01:26:58.877Z,9.27
2022-12-03T01:29:26.572Z,5.40
2022-12-03T01:32:12.959Z,8.20
2022-12-03T01:34:40.253Z,7.67
2022-12-03T01:37:07.710Z,7.60
2022-12-03T01:39:35.232Z,8.93
2022-12-03T01:42:03.168Z,8.70
2022-12-03T01:44:36.773Z,8.90
2022-12-03T01:47:07.359Z,7.77
2022-12-03T01:50:00.109Z,7.90
2022-12-03T01:52:32.335Z,8.07
2022-12-03T01:55:02.618Z,8.23
2022-12-03T01:57:44.950Z,8.10
2022-12-03T02:00:18.743Z,7.57
2022-12-03T02:02:48.713Z,7.63
2022-12-03T02:05:19.628Z,7.73
2022-12-03T02:07:47.900Z,8.37
2022-12-03T02:10:17.873Z,7.60
2022-12-03T02:12:53.541Z,8.37
2022-12-03T02:15:21.153Z,8.80
2022-12-03T02:17:49.051Z,7.87
2022-12-03T02:20:16.698Z,8.00
2022-12-03T02:22:49.019Z,8.47
2022-12-03T02:25:29.403Z,8.73
2022-12-03T02:27:57.110Z,8.63
2022-12-03T02:30:27.179Z,8.93
2022-12-03T02:32:56.120Z,8.40
2022-12-03T02:35:26.781Z,7.80
2022-12-03T02:38:02.909Z,7.50
2022-12-03T02:40:33.706Z,8.30
2022-12-03T02:43:03.780Z,8.27
2022-12-03T02:45:36.132Z,8.23
2022-12-03T02:48:25.814Z,8.90
2022-12-03T02:50:56.102Z,8.80
2022-12-03T02:53:37.961Z,9.00
2022-12-03T02:56:06.006Z,8.40
2022-12-03T02:58:34.146Z,9.20
2022-12-03T03:01:03.948Z,8.20
2022-12-03T03:03:32.555Z,9.03
2022-12-03T03:06:02.711Z,9.23
2022-12-03T03:08:31.129Z,8.23
2022-12-03T03:11:00.712Z,9.10
2022-12-03T03:13:31.058Z,9.07
2022-12-03T03:15:59.040Z,8.90
2022-12-03T03:18:26.598Z,8.00
2022-12-03T03:20:53.937Z,8.97
2022-12-03T03:23:23.404Z,8.40
2022-12-03T03:25:54.853Z,8.33
2022-12-03T03:28:22.519Z,6.93
2022-12-03T03:30:49.867Z,9.50
2022-12-03T03:33:17.651Z,9.60
2022-12-03T03:35:48.022Z,8.17
2022-12-03T03:38:19.258Z,8.40
2022-12-03T03:40:49.018Z,8.43
2022-12-03T03:43:16.542Z,6.63
2022-12-03T03:45:44.626Z,8.47
2022-12-03T03:48:13.183Z,8.40
2022-12-03T03:50:42.027Z,10.53
2022-12-03T03:53:10.889Z,8.63
2022-12-03T03:55:39.411Z,7.97
2022-12-03T03:58:06.784Z,8.57
2022-12-03T04:00:36.615Z,7.87
2022-12-03T04:03:05.026Z,9.53
2022-12-03T04:05:32.557Z,8.57
2022-12-03T04:08:00.225Z,9.93
2022-12-03T04:10:46.376Z,8.00
2022-12-03T04:13:13.807Z,9.70
2022-12-03T04:15:41.243Z,8.83
2022-12-03T04:18:27.162Z,9.53
2022-12-03T04:21:14.443Z,9.57
2022-12-03T04:23:41.778Z,9.63
2022-12-03T04:26:27.686Z,9.67
2022-12-03T04:28:55.384Z,9.47
2022-12-03T04:31:41.148Z,8.70
2022-12-03T04:34:28.742Z,8.30
2022-12-03T04:36:56.339Z,6.60
2022-12-03T04:39:23.885Z,10.00
2022-12-03T04:41:51.318Z,8.60
2022-12-03T04:44:34.119Z,9.33
2022-12-03T04:47:22.144Z,8.20
2022-12-03T04:49:51.390Z,8.70
2022-12-03T04:52:20.612Z,9.53
2022-12-03T04:54:48.155Z,8.17
2022-12-03T04:57:15.618Z,9.67
2022-12-03T04:59:43.157Z,8.13
2022-12-03T05:02:10.524Z,9.63
2022-12-03T05:04:38.532Z,8.87
2022-12-03T05:07:05.856Z,8.77
2022-12-03T05:09:33.413Z,7.70
2022-12-03T05:12:00.872Z,8.73
2022-12-03T05:14:29.356Z,9.90
2022-12-03T05:16:56.853Z,10.23
2022-12-03T05:19:44.327Z,9.43
2022-12-03T05:22:12.060Z,10.00
2022-12-03T05:24:40.818Z,7.43
2022-12-03T05:27:08.184Z,9.53
2022-12-03T05:29:35.786Z,9.93
2022-12-03T05:32:04.513Z,10.00
2022-12-03T05:34:31.935Z,8.13
2022-12-03T05:36:59.426Z,9.07
2022-12-03T05:39:26.965Z,9.83
2022-12-03T05:42:12.916Z,9.17
2022-12-03T05:44:40.831Z,10.70
2022-12-03T05:47:08.634Z,7.53
2022-12-03T05:49:36.137Z,8.80
2022-12-03T05:52:03.676Z,9.60
2022-12-03T05:54:31.167Z,9.77
2022-12-03T05:56:58.515Z,10.43
2022-12-03T05:59:26.247Z,9.63
2022-12-03T06:01:53.754Z,7.37
2022-12-03T06:04:21.261Z,10.03
2022-12-03T06:06:48.756Z,9.63
2022-12-03T06:09:16.091Z,10.30
2022-12-03T06:11:43.578Z,9.63
2022-12-03T06:14:12.299Z,9.40
2022-12-03T06:16:39.861Z,9.63
2022-12-03T06:19:07.679Z,10.00
2022-12-03T06:21:35.029Z,9.77
2022-12-03T06:24:02.677Z,9.80
2022-12-03T06:26:32.652Z,10.27
2022-12-03T06:29:00.221Z,10.07
2022-12-03T06:31:28.926Z,11.13
2022-12-03T06:33:57.786Z,10.23
2022-12-03T06:36:28.104Z,9.40
2022-12-03T06:38:55.630Z,9.90
2022-12-03T06:41:23.079Z,10.47
2022-12-03T06:43:50.590Z,10.33
2022-12-03T06:46:18.394Z,10.87
2022-12-03T06:48:46.892Z,9.83
2022-12-03T06:51:14.517Z,4.70
2022-12-03T06:53:41.938Z,8.17
2022-12-03T06:56:09.315Z,9.60
2022-12-03T06:58:36.773Z,9.00
2022-12-03T07:01:04.170Z,9.60
2022-12-03T07:03:31.512Z,10.20
2022-12-03T07:05:59.046Z,9.90
2022-12-03T07:08:27.141Z,8.90
2022-12-03T07:10:56.116Z,10.47
2022-12-03T07:13:25.046Z,9.53
2022-12-03T07:15:52.549Z,11.00
2022-12-03T07:18:20.103Z,10.13
2022-12-03T07:20:47.682Z,9.80
2022-12-03T07:23:15.997Z,10.73
2022-12-03T07:25:43.440Z,11.30
2022-12-03T07:28:10.872Z,10.03
2022-12-03T07:30:38.328Z,10.20
2022-12-03T07:33:05.805Z,10.03
2022-12-03T07:35:33.230Z,11.37
2022-12-03T07:38:00.677Z,10.67
2022-12-03T07:40:28.297Z,9.57
2022-12-03T07:42:55.657Z,9.10
2022-12-03T07:45:23.102Z,9.10
2022-12-03T07:47:50.555Z,10.60
2022-12-03T07:50:17.895Z,11.53
2022-12-03T07:52:45.329Z,10.80
2022-12-03T07:55:14.894Z,11.50
2022-12-03T07:57:42.299Z,10.23
2022-12-03T08:00:11.370Z,10.90
2022-12-03T08:02:38.923Z,11.47
2022-12-03T08:05:07.123Z,10.67
2022-12-03T08:07:34.492Z,11.27
2022-12-03T08:10:02.247Z,11.80
2022-12-03T08:12:43.254Z,11.00
2022-12-03T08:15:19.846Z,10.63
2022-12-03T08:18:00.686Z,11.67
2022-12-03T08:20:33.375Z,11.03
2022-12-03T08:23:06.861Z,9.97
2022-12-03T08:25:34.274Z,10.47
2022-12-03T08:28:23.088Z,9.83
2022-12-03T08:31:18.715Z,10.57
2022-12-03T08:33:49.056Z,8.03
2022-12-03T08:36:21.473Z,10.90
2022-12-03T08:39:02.862Z,10.77
2022-12-03T08:41:49.873Z,10.57
2022-12-03T08:44:32.640Z,9.40
2022-12-03T08:47:20.146Z,10.67
2022-12-03T08:50:00.109Z,12.27
2022-12-03T08:52:33.250Z,11.00
2022-12-03T08:55:23.288Z,11.30
2022-12-03T08:57:50.901Z,11.90
2022-12-03T09:00:24.190Z,12.37
2022-12-03T09:02:55.461Z,10.83
2022-12-03T09:05:27.525Z,12.03
2022-12-03T09:07:55.055Z,11.73
2022-12-03T09:10:22.571Z,9.23
2022-12-03T09:12:49.962Z,6.57
2022-12-03T09:15:17.829Z,11.33
2022-12-03T09:17:45.636Z,10.43
2022-12-03T09:20:13.205Z,10.73
2022-12-03T09:22:40.671Z,11.00
2022-12-03T09:25:08.382Z,10.97
2022-12-03T09:27:35.854Z,11.77
2022-12-03T09:30:04.467Z,11.43
2022-12-03T09:32:32.078Z,12.90
2022-12-03T09:34:59.670Z,11.73
2022-12-03T09:37:29.447Z,12.07
2022-12-03T09:39:56.910Z,10.60
2022-12-03T09:42:25.522Z,10.33
2022-12-03T09:44:53.986Z,11.30
2022-12-03T09:47:21.864Z,9.63
2022-12-03T09:49:49.471Z,11.57
2022-12-03T09:52:31.903Z,10.87
2022-12-03T09:55:01.818Z,12.37
2022-12-03T09:57:29.322Z,13.03
2022-12-03T09:59:57.545Z,11.87
2022-12-03T10:02:29.572Z,8.70
2022-12-03T10:04:58.427Z,10.67
2022-12-03T10:07:26.525Z,13.70
2022-12-03T10:09:54.303Z,12.97
2022-12-03T10:12:24.364Z,12.67
2022-12-03T10:14:53.481Z,13.07
2022-12-03T10:17:21.630Z,12.03
2022-12-03T10:19:49.068Z,11.67
2022-12-03T10:22:16.839Z,11.80
2022-12-03T10:24:45.199Z,13.67
2022-12-03T10:27:29.344Z,11.83
2022-12-03T10:30:01.469Z,11.77
2022-12-03T10:32:48.568Z,13.03
2022-12-03T10:35:25.906Z,12.07
2022-12-03T10:38:05.139Z,12.47
2022-12-03T10:40:35.271Z,10.77
2022-12-03T10:43:23.599Z,11.63
2022-12-03T10:45:52.816Z,12.63
2022-12-03T10:48:27.841Z,11.97
2022-12-03T10:51:10.398Z,12.33
2022-12-03T10:53:41.163Z,14.60
2022-12-03T10:56:15.203Z,11.37
2022-12-03T10:58:43.004Z,18.13
2022-12-03T11:01:19.847Z,37.27
2022-12-03T11:03:48.101Z,27.97
2022-12-03T11:06:19.486Z,19.30
2022-12-03T11:08:57.574Z,18.50
2022-12-03T11:11:31.485Z,13.93
2022-12-03T11:14:03.993Z,12.77
2022-12-03T11:16:40.582Z,11.50
2022-12-03T11:19:20.456Z,12.00
2022-12-03T11:22:06.102Z,13.23
2022-12-03T11:24:36.228Z,10.37
2022-12-03T11:27:03.543Z,11.83
2022-12-03T11:29:54.766Z,9.97
2022-12-03T11:32:44.251Z,10.73
2022-12-03T11:35:24.692Z,12.17
2022-12-03T11:37:52.364Z,10.63
2022-12-03T11:40:19.760Z,11.83
2022-12-03T11:42:48.390Z,11.87
2022-12-03T11:45:18.652Z,12.27
2022-12-03T11:48:07.724Z,13.10
2022-12-03T11:50:40.341Z,12.83
2022-12-03T11:53:10.885Z,12.07
2022-12-03T11:55:40.798Z,13.00
2022-12-03T11:58:15.892Z,13.10
2022-12-03T12:00:54.889Z,11.63
2022-12-03T12:03:34.094Z,11.80
2022-12-03T12:06:07.743Z,12.67
2022-12-03T12:08:38.067Z,11.83
2022-12-03T12:11:27.478Z,13.17
2022-12-03T12:13:59.424Z,11.90
2022-12-03T12:16:58.539Z,12.57
2022-12-03T12:19:32.077Z,12.50
2022-12-03T12:22:20.815Z,12.60
2022-12-03T12:24:53.959Z,12.30
2022-12-03T12:27:37.780Z,11.27
2022-12-03T12:30:08.713Z,13.03
2022-12-03T12:32:45.292Z,12.40
2022-12-03T12:35:27.035Z,13.13
2022-12-03T12:38:02.372Z,11.57
2022-12-03T12:40:32.426Z,13.77
2022-12-03T12:43:08.242Z,13.33
2022-12-03T12:45:42.316Z,12.67
2022-12-03T12:48:40.072Z,13.00
2022-12-03T12:51:13.945Z,10.33
2022-12-03T12:53:45.077Z,13.23
2022-12-03T12:56:30.234Z,12.87
2022-12-03T12:59:08.715Z,12.87
2022-12-03T13:01:36.516Z,13.00
2022-12-03T13:04:19.107Z,12.80
2022-12-03T13:06:49.857Z,13.13
2022-12-03T13:09:19.786Z,12.97
2022-12-03T13:11:53.853Z,12.87
2022-12-03T13:14:23.216Z,12.87
2022-12-03T13:16:53.049Z,12.93
2022-12-03T13:19:39.591Z,12.53
2022-12-03T13:22:22.111Z,12.00
2022-12-03T13:24:56.073Z,12.67
2022-12-03T13:27:30.035Z,13.97
2022-12-03T13:30:13.852Z,13.90
2022-12-03T13:32:42.706Z,13.37
2022-12-03T13:35:10.151Z,14.23
2022-12-03T13:37:38.510Z,14.70
2022-12-03T13:40:35.107Z,13.33
2022-12-03T13:43:12.493Z,12.27
2022-12-03T13:45:41.595Z,13.13
2022-12-03T13:48:29.419Z,13.43
2022-12-03T13:50:57.367Z,13.53
2022-12-03T13:53:38.702Z,13.23
2022-12-03T13:56:32.337Z,12.93
2022-12-03T13:59:01.024Z,12.43
2022-12-03T14:01:29.561Z,13.13
2022-12-03T14:03:57.270Z,14.77
2022-12-03T14:06:24.933Z,13.30
2022-12-03T14:08:52.326Z,13.50
2022-12-03T14:11:38.643Z,11.00
2022-12-03T14:14:06.344Z,12.73
2022-12-03T14:16:33.881Z,13.33
2022-12-03T14:19:01.262Z,13.10
2022-12-03T14:21:28.652Z,13.47
2022-12-03T14:23:56.126Z,13.00
2022-12-03T14:26:23.584Z,12.90
2022-12-03T14:28:51.049Z,12.73
2022-12-03T14:31:18.397Z,13.27
2022-12-03T14:33:45.813Z,13.97
2022-12-03T14:36:13.519Z,8.67
2022-12-03T14:38:40.853Z,13.67
2022-12-03T14:41:28.290Z,14.03
2022-12-03T14:43:55.747Z,12.83
2022-12-03T14:46:23.282Z,14.50
2022-12-03T14:48:50.637Z,14.47
2022-12-03T14:51:18.013Z,13.50
2022-12-03T14:53:45.490Z,13.70
2022-12-03T14:56:12.985Z,14.30
2022-12-03T14:58:40.553Z,13.07
2022-12-03T15:01:08.288Z,15.33
2022-12-03T15:03:35.641Z,11.90
2022-12-03T15:06:03.093Z,12.20
2022-12-03T15:08:30.552Z,14.27
2022-12-03T15:10:57.930Z,13.80
2022-12-03T15:13:25.270Z,14.57
2022-12-03T15:15:52.729Z,14.17
2022-12-03T15:18:20.062Z,14.27
2022-12-03T15:20:47.494Z,13.53
2022-12-03T15:23:14.978Z,13.60
2022-12-03T15:25:42.491Z,14.60
2022-12-03T15:28:10.155Z,13.67
2022-12-03T15:30:40.337Z,12.97
2022-12-03T15:33:08.613Z,15.33
2022-12-03T15:35:37.428Z,14.00
2022-12-03T15:38:04.909Z,13.83
2022-12-03T15:40:32.513Z,11.80
2022-12-03T15:42:59.930Z,16.03
2022-12-03T15:45:27.363Z,13.63
2022-12-03T15:47:54.845Z,15.23
2022-12-03T15:50:22.146Z,12.37
2022-12-03T15:52:49.639Z,13.57
2022-12-03T15:55:17.395Z,11.17
2022-12-03T15:57:45.341Z,10.13
2022-12-03T16:00:14.220Z,9.93
2022-12-03T16:02:46.204Z,13.83
2022-12-03T16:05:16.641Z,12.10
2022-12-03T16:07:44.153Z,15.17
2022-12-03T16:10:12.427Z,13.37
2022-12-03T16:12:39.794Z,13.63
2022-12-03T16:15:07.647Z,14.53
2022-12-03T16:17:35.171Z,13.30
2022-12-03T16:20:03.019Z,11.23
2022-12-03T16:22:30.455Z,14.17
2022-12-03T16:24:57.890Z,14.63
2022-12-03T16:27:26.076Z,14.60
2022-12-03T16:29:53.826Z,16.63
2022-12-03T16:32:22.381Z,15.90
2022-12-03T16:34:49.905Z,15.17
2022-12-03T16:37:17.377Z,16.47
2022-12-03T16:39:44.767Z,15.67
2022-12-03T16:42:17.157Z,25.53
2022-12-03T16:45:03.345Z,19.10
2022-12-03T16:47:34.052Z,17.23
2022-12-03T16:50:02.777Z,17.07
2022-12-03T16:52:30.229Z,16.40
2022-12-03T16:54:57.671Z,15.87
2022-12-03T16:57:28.896Z,16.17
2022-12-03T16:59:59.278Z,15.53
2022-12-03T17:02:28.026Z,12.73
2022-12-03T17:04:55.393Z,11.87
2022-12-03T17:07:22.775Z,14.07
2022-12-03T17:09:50.246Z,15.23
2022-12-03T17:12:17.841Z,12.93
2022-12-03T17:14:45.359Z,16.33
2022-12-03T17:17:12.816Z,14.50
2022-12-03T17:19:40.241Z,15.40
2022-12-03T17:22:07.575Z,20.33
2022-12-03T17:24:34.994Z,17.90
2022-12-03T17:27:02.320Z,17.43
2022-12-03T17:29:29.779Z,14.60
2022-12-03T17:31:57.205Z,15.13
2022-12-03T17:34:24.572Z,14.17
2022-12-03T17:36:52.035Z,14.87
2022-12-03T17:39:19.344Z,12.10
2022-12-03T17:41:47.056Z,14.90
2022-12-03T17:44:19.411Z,14.80
2022-12-03T17:46:48.547Z,16.20
2022-12-03T17:49:16.187Z,15.47
2022-12-03T17:51:43.726Z,15.73
2022-12-03T17:54:11.119Z,15.40
2022-12-03T17:56:39.440Z,17.07
2022-12-03T17:59:06.734Z,16.13
2022-12-03T18:01:34.135Z,17.30
2022-12-03T18:04:01.556Z,16.37
2022-12-03T18:06:29.069Z,15.97
2022-12-03T18:08:56.739Z,15.80
2022-12-03T18:11:24.657Z,13.63
2022-12-03T18:13:52.212Z,12.70
2022-12-03T18:16:19.601Z,9.10
2022-12-03T18:18:47.139Z,14.80
2022-12-03T18:21:15.012Z,15.30
2022-12-03T18:23:42.776Z,15.43
2022-12-03T18:26:10.526Z,11.57
2022-12-03T18:28:39.022Z,12.17
2022-12-03T18:31:14.047Z,11.40
2022-12-03T18:33:41.579Z,4.47
2022-12-03T18:36:17.846Z,14.30
2022-12-03T18:38:45.780Z,12.20
2022-12-03T18:41:13.086Z,13.70
2022-12-03T18:43:43.553Z,14.20
2022-12-03T18:46:31.297Z,13.90
2022-12-03T18:49:02.116Z,9.33
2022-12-03T18:51:29.761Z,14.43
2022-12-03T18:53:57.175Z,15.57
2022-12-03T18:56:24.735Z,13.90
2022-12-03T18:58:52.244Z,13.27
2022-12-03T19:01:22.011Z,13.47
2022-12-03T19:03:49.955Z,13.23
2022-12-03T19:06:19.862Z,12.80
2022-12-03T19:08:49.745Z,12.87
2022-12-03T19:11:17.093Z,10.17
2022-12-03T19:13:44.557Z,13.10
2022-12-03T19:16:12.513Z,12.43
2022-12-03T19:18:40.422Z,12.40
2022-12-03T19:21:09.717Z,13.20
2022-12-03T19:23:37.505Z,10.57
2022-12-03T19:26:07.235Z,12.00
2022-12-03T19:28:35.169Z,13.87
2022-12-03T19:31:04.918Z,13.53
2022-12-03T19:33:33.343Z,15.23
2022-12-03T19:36:02.628Z,13.23
2022-12-03T19:38:31.036Z,9.90
2022-12-03T19:41:02.139Z,10.47
2022-12-03T19:43:34.361Z,10.00
2022-12-03T19:46:10.835Z,10.93
2022-12-03T19:48:40.229Z,14.17
2022-12-03T19:51:33.194Z,13.50
2022-12-03T19:53:56.001Z,13.20
2022-12-03T19:56:23.522Z,13.03
2022-12-03T19:58:55.069Z,13.63
2022-12-03T20:01:27.973Z,12.57
2022-12-03T20:03:57.376Z,13.73
2022-12-03T20:06:27.251Z,13.17
2022-12-03T20:09:03.560Z,13.10
2022-12-03T20:11:33.409Z,15.20
2022-12-03T20:14:04.795Z,14.83
2022-12-03T20:16:32.456Z,13.50
2022-12-03T20:19:02.246Z,14.80
2022-12-03T20:21:32.370Z,14.47
2022-12-03T20:23:59.987Z,11.60
2022-12-03T20:26:27.803Z,10.90
2022-12-03T20:28:56.079Z,13.00
2022-12-03T20:31:26.090Z,14.87
2022-12-03T20:33:57.510Z,13.40
2022-12-03T20:36:26.214Z,14.33
2022-12-03T20:38:55.788Z,14.40
2022-12-03T20:41:23.804Z,13.63
2022-12-03T20:43:52.004Z,13.47
2022-12-03T20:46:25.745Z,13.90
2022-12-03T20:48:54.342Z,14.63
2022-12-03T20:51:25.388Z,13.17
2022-12-03T20:53:54.610Z,14.47
2022-12-03T20:56:31.476Z,13.80
2022-12-03T20:59:05.198Z,10.80
2022-12-03T21:01:33.287Z,15.33
2022-12-03T21:04:00.760Z,14.17
2022-12-03T21:06:30.084Z,14.03
2022-12-03T21:08:59.190Z,13.13
2022-12-03T21:11:30.038Z,12.23
2022-12-03T21:13:58.725Z,14.27
2022-12-03T21:16:59.380Z,14.93
2022-12-03T21:19:18.542Z,14.00
2022-12-03T21:21:46.198Z,14.53
2022-12-03T21:24:13.963Z,17.53
2022-12-03T21:26:41.809Z,14.70
2022-12-03T21:29:09.301Z,13.70
2022-12-03T21:31:38.584Z,16.17
2022-12-03T21:34:06.177Z,13.27
2022-12-03T21:36:33.557Z,15.00
2022-12-03T21:39:01.087Z,14.90
2022-12-03T21:41:28.550Z,13.77
2022-12-03T21:43:55.845Z,14.33
2022-12-03T21:47:09.617Z,13.70
2022-12-03T21:49:10.576Z,14.07
2022-12-03T21:51:37.912Z,8.17
2022-12-03T21:54:05.533Z,12.90
2022-12-03T21:56:33.176Z,13.60
2022-12-03T21:59:00.570Z,11.53
2022-12-03T22:01:27.962Z,12.40
2022-12-03T22:03:55.701Z,15.60
2022-12-03T22:06:23.234Z,14.73
2022-12-03T22:08:50.897Z,13.30
2022-12-03T22:11:20.399Z,13.77
2022-12-03T22:13:47.898Z,13.30
2022-12-03T22:16:17.892Z,12.23
2022-12-03T22:18:45.870Z,12.53
2022-12-03T22:21:16.476Z,12.27
2022-12-03T22:23:44.350Z,13.03
2022-12-03T22:26:13.852Z,13.57
2022-12-03T22:28:46.287Z,14.40
2022-12-03T22:31:14.731Z,14.90
2022-12-03T22:33:42.579Z,13.77
2022-12-03T22:36:19.916Z,13.60
2022-12-03T22:38:48.644Z,13.03
2022-12-03T22:41:16.237Z,11.83
2022-12-03T22:43:43.754Z,15.67
2022-12-03T22:46:12.865Z,13.40
2022-12-03T22:48:45.792Z,14.47
2022-12-03T22:51:25.711Z,13.80
2022-12-03T22:53:57.722Z,13.53
2022-12-03T22:56:26.344Z,11.77
2022-12-03T22:58:54.540Z,13.97
2022-12-03T23:01:30.851Z,14.07
2022-12-03T23:03:59.374Z,13.27
2022-12-03T23:06:27.264Z,14.47
2022-12-03T23:08:55.192Z,14.77
2022-12-03T23:11:22.644Z,13.37
2022-12-03T23:13:50.110Z,10.50
2022-12-03T23:16:20.792Z,12.47
2022-12-03T23:18:48.786Z,13.43
2022-12-03T23:21:29.281Z,13.77
2022-12-03T23:24:01.452Z,14.10
2022-12-03T23:26:29.278Z,14.43
2022-12-03T23:28:57.071Z,14.27
2022-12-03T23:31:27.183Z,13.40
2022-12-03T23:33:55.954Z,12.47
2022-12-03T23:36:24.557Z,14.77
2022-12-03T23:38:51.996Z,14.20
2022-12-03T23:41:21.363Z,12.57
2022-12-03T23:43:48.728Z,14.90
2022-12-03T23:46:22.260Z,11.57
2022-12-03T23:48:50.168Z,13.03
2022-12-03T23:51:24.264Z,13.10
2022-12-03T23:53:55.529Z,12.53
2022-12-03T23:56:26.641Z,12.63
2022-12-03T23:58:54.075Z,14.40
